Terminal Aerodrome Forecast
Issued by NWS

Home | Current Version | Previous Version | Text Only | Print | Product List | Glossary On
Versions: 1 2 3 4 5 6 7 8 9 10 11 12 13 14 15
259
FTUS43 KBIS 251726
TAFMOT
TAF
KMOT 251726Z 2518/2618 22017G25KT P6SM SCT250
     FM252100 23020G29KT P6SM BKN070
     FM260200 24012KT P6SM BKN110
     FM261300 27013G21KT P6SM BKN060
     FM261700 28016G24KT P6SM BKN025=

USA.gov is the U.S. government's official web portal to all federal, state and local government web resources and services.